Terminal Aerodrome Forecast
Issued by NWS

Home | Current Version | Previous Version | Text Only | Print | Product List | Glossary On
Versions: 1 2 3 4 5 6 7 8 9 10 11 12 13 14 15 16 17 18
293
FTUS44 KLZK 261720
TAFBPK
TAF
KBPK 261720Z 2618/2718 17009KT P6SM BKN100 BKN250
     FM270000 14007KT P6SM OVC050
     FM270400 14005KT P6SM VCSH SCT025 OVC040
     FM270800 VRB03KT 4SM BR OVC010
      TEMPO 2710/2714 2SM BR OVC005
     FM271500 14004KT P6SM BKN008=

USA.gov is the U.S. government's official web portal to all federal, state and local government web resources and services.